createdAt,value
2022-10-22T00:00:46.108Z,6.50
2022-10-22T00:03:13.954Z,5.80
2022-10-22T00:05:41.418Z,5.63
2022-10-22T00:08:08.895Z,5.00
2022-10-22T00:10:38.391Z,5.17
2022-10-22T00:13:06.049Z,5.20
2022-10-22T00:15:33.915Z,5.20
2022-10-22T00:18:02.828Z,6.10
2022-10-22T00:20:30.225Z,5.07
2022-10-22T00:22:57.649Z,8.37
2022-10-22T00:25:25.190Z,5.37
2022-10-22T00:27:52.588Z,6.23
2022-10-22T00:30:20.412Z,5.27
2022-10-22T00:32:47.855Z,5.40
2022-10-22T00:35:16.826Z,5.57
2022-10-22T00:37:44.236Z,5.30
2022-10-22T00:40:12.441Z,7.33
2022-10-22T00:42:40.025Z,5.77
2022-10-22T00:45:18.843Z,5.33
2022-10-22T00:47:51.605Z,5.80
2022-10-22T00:50:24.331Z,5.97
2022-10-22T00:52:51.987Z,7.00
2022-10-22T00:55:21.495Z,7.93
2022-10-22T00:57:49.490Z,6.53
2022-10-22T01:00:18.071Z,5.43
2022-10-22T01:02:46.157Z,6.60
2022-10-22T01:05:14.180Z,5.23
2022-10-22T01:07:45.950Z,5.57
2022-10-22T01:10:24.204Z,6.53
2022-10-22T01:13:02.801Z,5.13
2022-10-22T01:15:37.575Z,5.67
2022-10-22T01:18:08.954Z,6.07
2022-10-22T01:20:56.606Z,6.73
2022-10-22T01:23:50.516Z,6.30
2022-10-22T01:26:26.055Z,5.00
2022-10-22T01:29:01.547Z,5.47
2022-10-22T01:31:33.422Z,5.07
2022-10-22T01:34:02.124Z,5.73
2022-10-22T01:36:32.677Z,5.97
2022-10-22T01:39:03.012Z,6.00
2022-10-22T01:41:31.047Z,5.70
2022-10-22T01:43:59.925Z,6.27
2022-10-22T01:46:29.814Z,4.93
2022-10-22T01:49:14.676Z,5.03
2022-10-22T01:51:53.651Z,5.27
2022-10-22T01:54:32.079Z,6.90
2022-10-22T01:57:10.154Z,5.57
2022-10-22T01:59:51.544Z,5.97
2022-10-22T02:02:29.459Z,3.90
2022-10-22T02:05:01.673Z,1.47
2022-10-22T02:07:33.636Z,1.20
2022-10-22T02:10:02.394Z,1.30
2022-10-22T02:12:32.526Z,1.77
2022-10-22T02:15:03.572Z,2.27
2022-10-22T02:17:36.142Z,1.20
2022-10-22T02:20:09.070Z,1.80
2022-10-22T02:22:37.422Z,0.87
2022-10-22T02:25:07.129Z,1.50
2022-10-22T02:27:40.428Z,1.10
2022-10-22T02:30:12.537Z,2.33
2022-10-22T02:32:44.486Z,4.10
2022-10-22T02:35:17.263Z,3.70
2022-10-22T02:37:45.539Z,5.20
2022-10-22T02:40:13.369Z,5.10
2022-10-22T02:42:43.133Z,6.27
2022-10-22T02:45:12.271Z,7.57
2022-10-22T02:47:39.694Z,6.53
2022-10-22T02:50:10.325Z,6.33
2022-10-22T02:52:38.409Z,4.10
2022-10-22T02:55:07.751Z,3.63
2022-10-22T02:57:35.401Z,4.20
2022-10-22T03:00:03.019Z,4.47
2022-10-22T03:02:31.796Z,4.80
2022-10-22T03:04:59.393Z,4.33
2022-10-22T03:07:26.794Z,4.33
2022-10-22T03:09:54.286Z,3.30
2022-10-22T03:12:21.814Z,3.10
2022-10-22T03:14:49.223Z,3.07
2022-10-22T03:17:16.634Z,2.83
2022-10-22T03:19:45.407Z,2.43
2022-10-22T03:22:18.907Z,3.33
2022-10-22T03:24:49.475Z,2.93
2022-10-22T03:27:19.403Z,3.37
2022-10-22T03:29:47.773Z,2.90
2022-10-22T03:32:15.229Z,3.23
2022-10-22T03:34:42.637Z,3.80
2022-10-22T03:37:12.274Z,4.23
2022-10-22T03:39:39.966Z,4.60
2022-10-22T03:42:08.417Z,5.03
2022-10-22T03:44:37.361Z,4.93
2022-10-22T03:47:05.144Z,6.07
2022-10-22T03:49:32.964Z,4.90
2022-10-22T03:52:06.477Z,4.70
2022-10-22T03:54:36.600Z,5.07
2022-10-22T03:57:04.529Z,4.40
2022-10-22T03:59:35.757Z,6.70
2022-10-22T04:02:03.310Z,5.10
2022-10-22T04:04:31.015Z,7.73
2022-10-22T04:06:58.532Z,5.57
2022-10-22T04:09:26.103Z,5.93
2022-10-22T04:11:54.891Z,4.97
2022-10-22T04:14:22.492Z,5.40
2022-10-22T04:16:49.877Z,5.27
2022-10-22T04:19:18.221Z,5.97
2022-10-22T04:21:45.810Z,5.37
2022-10-22T04:24:13.238Z,5.33
2022-10-22T04:26:41.003Z,6.70
2022-10-22T04:29:13.385Z,4.63
2022-10-22T04:31:43.726Z,4.60
2022-10-22T04:34:11.290Z,4.43
2022-10-22T04:36:39.145Z,5.37
2022-10-22T04:39:07.327Z,4.13
2022-10-22T04:41:36.809Z,4.23
2022-10-22T04:44:05.542Z,4.13
2022-10-22T04:46:36.023Z,3.40
2022-10-22T04:49:04.591Z,4.50
2022-10-22T04:51:32.723Z,3.40
2022-10-22T04:54:00.259Z,3.93
2022-10-22T04:56:29.777Z,5.40
2022-10-22T04:58:58.870Z,3.87
2022-10-22T05:01:28.516Z,4.67
2022-10-22T05:03:59.965Z,2.80
2022-10-22T05:06:29.539Z,3.60
2022-10-22T05:08:58.884Z,2.93
2022-10-22T05:11:29.106Z,2.00
2022-10-22T05:13:57.404Z,3.20
2022-10-22T05:16:25.364Z,2.30
2022-10-22T05:18:53.333Z,3.53
2022-10-22T05:21:22.454Z,2.80
2022-10-22T05:23:51.697Z,4.27
2022-10-22T05:26:21.285Z,2.30
2022-10-22T05:28:50.163Z,4.10
2022-10-22T05:31:19.142Z,4.00
2022-10-22T05:33:47.089Z,4.20
2022-10-22T05:36:18.424Z,5.23
2022-10-22T05:38:47.246Z,5.83
2022-10-22T05:41:18.151Z,4.17
2022-10-22T05:43:45.970Z,5.13
2022-10-22T05:46:19.879Z,4.57
2022-10-22T05:48:50.921Z,5.10
2022-10-22T05:51:18.464Z,4.30
2022-10-22T05:53:51.330Z,4.23
2022-10-22T05:56:19.114Z,5.27
2022-10-22T05:58:46.825Z,5.33
2022-10-22T06:01:16.302Z,4.17
2022-10-22T06:03:44.653Z,5.70
2022-10-22T06:06:19.523Z,6.87
2022-10-22T06:08:50.587Z,3.27
2022-10-22T06:11:19.690Z,3.83
2022-10-22T06:13:48.223Z,3.33
2022-10-22T06:16:16.310Z,4.87
2022-10-22T06:18:43.756Z,3.83
2022-10-22T06:21:14.615Z,2.60
2022-10-22T06:23:43.010Z,2.53
2022-10-22T06:26:12.296Z,2.50
2022-10-22T06:28:40.150Z,2.20
2022-10-22T06:31:07.882Z,1.93
2022-10-22T06:33:41.978Z,2.40
2022-10-22T06:36:11.884Z,2.10
2022-10-22T06:38:39.884Z,2.50
2022-10-22T06:41:09.125Z,3.10
2022-10-22T06:43:37.862Z,2.90
2022-10-22T06:46:08.662Z,4.73
2022-10-22T06:48:37.724Z,2.80
2022-10-22T06:51:07.262Z,2.33
2022-10-22T06:53:35.079Z,4.10
2022-10-22T06:56:06.240Z,3.20
2022-10-22T06:58:33.711Z,5.10
2022-10-22T07:01:04.197Z,4.83
2022-10-22T07:03:31.863Z,3.60
2022-10-22T07:06:01.346Z,4.30
2022-10-22T07:08:29.281Z,2.90
2022-10-22T07:10:58.985Z,2.83
2022-10-22T07:13:26.555Z,3.17
2022-10-22T07:15:55.361Z,2.87
2022-10-22T07:18:24.116Z,2.07
2022-10-22T07:20:51.816Z,2.20
2022-10-22T07:23:19.243Z,1.83
2022-10-22T07:25:47.227Z,3.13
2022-10-22T07:28:15.266Z,2.00
2022-10-22T07:30:43.079Z,3.47
2022-10-22T07:33:10.670Z,3.30
2022-10-22T07:35:40.350Z,1.90
2022-10-22T07:38:09.039Z,4.00
2022-10-22T07:40:36.994Z,4.23
2022-10-22T07:43:05.531Z,3.27
2022-10-22T07:45:33.548Z,1.63
2022-10-22T07:48:02.208Z,1.90
2022-10-22T07:50:29.675Z,4.20
2022-10-22T07:52:58.546Z,1.50
2022-10-22T07:55:26.226Z,2.63
2022-10-22T07:57:53.705Z,1.80
2022-10-22T08:00:24.444Z,1.30
2022-10-22T08:02:53.263Z,2.87
2022-10-22T08:05:20.717Z,2.83
2022-10-22T08:07:48.134Z,1.73
2022-10-22T08:10:17.211Z,2.43
2022-10-22T08:12:44.877Z,1.97
2022-10-22T08:15:12.352Z,1.33
2022-10-22T08:17:40.259Z,1.97
2022-10-22T08:20:09.163Z,2.20
2022-10-22T08:22:36.606Z,2.60
2022-10-22T08:25:04.299Z,1.37
2022-10-22T08:27:33.111Z,1.33
2022-10-22T08:30:00.514Z,2.17
2022-10-22T08:35:00.386Z,1.53
2022-10-22T08:37:27.844Z,1.43
2022-10-22T08:39:55.267Z,2.10
2022-10-22T08:42:44.983Z,1.63
2022-10-22T08:45:18.581Z,2.43
2022-10-22T08:48:03.258Z,1.40
2022-10-22T08:50:35.179Z,2.73
2022-10-22T08:53:06.129Z,1.40
2022-10-22T08:55:37.220Z,1.30
2022-10-22T08:58:17.638Z,2.78
2022-10-22T09:00:48.434Z,1.85
2022-10-22T09:03:39.828Z,2.05
2022-10-22T09:06:12.967Z,1.88
2022-10-22T09:08:42.907Z,1.30
2022-10-22T09:11:20.813Z,1.10
2022-10-22T09:13:50.899Z,2.35
2022-10-22T09:16:20.357Z,3.42
2022-10-22T09:18:59.383Z,1.58
2022-10-22T09:21:35.020Z,1.33
2022-10-22T09:24:07.004Z,2.95
2022-10-22T09:26:38.870Z,3.75
2022-10-22T09:29:10.447Z,2.35
2022-10-22T09:31:38.146Z,1.92
2022-10-22T09:34:07.740Z,4.10
2022-10-22T09:36:36.318Z,2.83
2022-10-22T09:39:04.148Z,2.15
2022-10-22T09:41:31.786Z,1.55
2022-10-22T09:43:59.974Z,1.40
2022-10-22T09:46:39.606Z,3.03
2022-10-22T09:49:12.262Z,1.88
2022-10-22T09:51:50.999Z,2.25
2022-10-22T09:54:20.967Z,2.50
2022-10-22T09:56:53.461Z,1.98
2022-10-22T09:59:28.811Z,1.52
2022-10-22T10:02:13.752Z,1.88
2022-10-22T10:04:50.225Z,2.85
2022-10-22T10:07:19.734Z,2.35
2022-10-22T10:09:47.575Z,3.08
2022-10-22T10:12:29.152Z,1.48
2022-10-22T10:15:07.154Z,0.95
2022-10-22T10:17:45.007Z,1.73
2022-10-22T10:20:24.978Z,1.38
2022-10-22T10:22:59.123Z,1.15
2022-10-22T10:25:39.862Z,3.90
2022-10-22T10:28:22.495Z,1.90
2022-10-22T10:31:00.166Z,2.75
2022-10-22T10:33:40.207Z,2.10
2022-10-22T10:36:18.105Z,2.40
2022-10-22T10:39:00.879Z,2.30
2022-10-22T10:41:37.523Z,1.70
2022-10-22T10:44:37.186Z,3.55
2022-10-22T10:47:17.680Z,1.77
2022-10-22T10:49:47.481Z,2.22
2022-10-22T10:52:22.219Z,2.45
2022-10-22T10:55:01.357Z,2.47
2022-10-22T10:57:40.835Z,1.98
2022-10-22T11:00:12.714Z,1.65
2022-10-22T11:03:09.607Z,2.45
2022-10-22T11:05:46.546Z,2.25
2022-10-22T11:08:19.761Z,1.90
2022-10-22T11:10:49.634Z,1.23
2022-10-22T11:13:23.716Z,2.42
2022-10-22T11:15:56.747Z,2.25
2022-10-22T11:18:33.179Z,1.48
2022-10-22T11:21:11.723Z,1.73
2022-10-22T11:23:45.043Z,1.25
2022-10-22T11:26:20.067Z,1.52
2022-10-22T11:28:52.150Z,1.25
2022-10-22T11:31:20.389Z,1.58
2022-10-22T11:34:00.581Z,2.55
2022-10-22T11:36:44.228Z,1.73
2022-10-22T11:39:39.502Z,1.77
2022-10-22T11:42:11.374Z,2.22
2022-10-22T11:45:01.371Z,2.65
2022-10-22T11:47:32.838Z,1.55
2022-10-22T11:50:17.842Z,0.90
2022-10-22T11:52:55.090Z,2.65
2022-10-22T11:55:33.395Z,1.23
2022-10-22T11:58:02.671Z,1.30
2022-10-22T12:00:41.639Z,1.08
2022-10-22T12:03:19.954Z,1.70
2022-10-22T12:05:47.523Z,2.40
2022-10-22T12:08:27.261Z,1.48
2022-10-22T12:11:16.835Z,1.52
2022-10-22T12:14:13.359Z,2.53
2022-10-22T12:16:55.640Z,1.55
2022-10-22T12:19:32.783Z,2.22
2022-10-22T12:22:11.720Z,4.40
2022-10-22T12:24:44.362Z,1.42
2022-10-22T12:27:22.577Z,1.45
2022-10-22T12:29:55.421Z,1.63
2022-10-22T12:32:23.022Z,2.95
2022-10-22T12:34:52.087Z,1.52
2022-10-22T12:37:20.718Z,3.08
2022-10-22T12:39:49.466Z,2.15
2022-10-22T12:42:19.012Z,1.63
2022-10-22T12:44:46.441Z,1.80
2022-10-22T12:47:17.439Z,1.88
2022-10-22T12:49:48.454Z,1.65
2022-10-22T12:52:19.178Z,1.30
2022-10-22T12:54:50.052Z,1.52
2022-10-22T12:57:20.331Z,2.03
2022-10-22T12:59:50.500Z,1.85
2022-10-22T13:02:22.502Z,4.93
2022-10-22T13:05:16.659Z,1.88
2022-10-22T13:07:47.993Z,2.05
2022-10-22T13:10:20.859Z,1.65
2022-10-22T13:12:54.913Z,1.73
2022-10-22T13:15:34.549Z,2.67
2022-10-22T13:18:15.294Z,1.65
2022-10-22T13:20:51.934Z,1.52
2022-10-22T13:23:20.902Z,1.58
2022-10-22T13:26:00.178Z,2.92
2022-10-22T13:28:29.451Z,2.15
2022-10-22T13:30:59.226Z,1.70
2022-10-22T13:33:30.241Z,0.95
2022-10-22T13:35:57.926Z,2.10
2022-10-22T13:38:27.463Z,2.55
2022-10-22T13:40:55.788Z,0.80
2022-10-22T13:43:25.969Z,1.67
2022-10-22T13:45:56.390Z,1.70
2022-10-22T13:48:25.651Z,1.67
2022-10-22T13:50:54.337Z,1.35
2022-10-22T13:53:24.078Z,1.42
2022-10-22T13:55:52.063Z,2.17
2022-10-22T13:58:21.236Z,1.13
2022-10-22T14:00:54.295Z,1.50
2022-10-22T14:03:24.799Z,1.83
2022-10-22T14:05:52.307Z,2.60
2022-10-22T14:08:23.034Z,1.40
2022-10-22T14:10:50.854Z,1.80
2022-10-22T14:13:19.333Z,1.92
2022-10-22T14:15:48.987Z,2.53
2022-10-22T14:18:25.230Z,1.35
2022-10-22T14:20:54.679Z,1.70
2022-10-22T14:23:24.093Z,3.67
2022-10-22T14:25:52.030Z,3.40
2022-10-22T14:28:19.658Z,1.73
2022-10-22T14:30:47.635Z,2.45
2022-10-22T14:33:20.467Z,1.85
2022-10-22T14:35:49.702Z,3.40
2022-10-22T14:38:17.707Z,1.92
2022-10-22T14:40:46.137Z,1.92
2022-10-22T14:43:17.532Z,2.28
2022-10-22T14:45:44.928Z,2.10
2022-10-22T14:48:12.370Z,1.48
2022-10-22T14:50:41.113Z,3.35
2022-10-22T14:53:08.543Z,1.08
2022-10-22T14:55:36.183Z,2.97
2022-10-22T14:58:03.636Z,1.40
2022-10-22T15:00:31.122Z,3.53
2022-10-22T15:03:03.210Z,1.85
2022-10-22T15:05:31.718Z,2.42
2022-10-22T15:08:00.457Z,3.53
2022-10-22T15:10:27.878Z,3.00
2022-10-22T15:12:55.287Z,1.92
2022-10-22T15:15:23.276Z,2.47
2022-10-22T15:17:52.075Z,1.42
2022-10-22T15:20:19.489Z,2.22
2022-10-22T15:22:46.935Z,1.42
2022-10-22T15:25:15.707Z,1.65
2022-10-22T15:27:45.523Z,2.40
2022-10-22T15:30:16.287Z,1.65
2022-10-22T15:32:44.063Z,2.55
2022-10-22T15:35:11.826Z,3.25
2022-10-22T15:37:39.215Z,3.13
2022-10-22T15:40:08.622Z,3.25
2022-10-22T15:42:37.379Z,3.00
2022-10-22T15:45:05.351Z,1.77
2022-10-22T15:47:33.515Z,1.73
2022-10-22T15:50:00.917Z,1.55
2022-10-22T15:52:28.321Z,1.77
2022-10-22T15:54:55.906Z,2.00
2022-10-22T15:57:23.341Z,3.83
2022-10-22T15:59:52.209Z,2.58
2022-10-22T16:02:19.685Z,2.45
2022-10-22T16:04:47.783Z,1.77
2022-10-22T16:07:15.175Z,2.70
2022-10-22T16:09:42.633Z,3.73
2022-10-22T16:12:11.407Z,3.23
2022-10-22T16:14:40.746Z,2.03
2022-10-22T16:17:09.929Z,2.10
2022-10-22T16:19:37.538Z,2.93
2022-10-22T16:22:04.946Z,2.23
2022-10-22T16:24:32.375Z,1.83
2022-10-22T16:27:00.090Z,3.33
2022-10-22T16:29:27.533Z,2.23
2022-10-22T16:31:54.939Z,3.40
2022-10-22T16:34:23.711Z,1.20
2022-10-22T16:39:24.718Z,4.10
2022-10-22T16:41:52.134Z,2.13
2022-10-22T16:44:19.541Z,3.57
2022-10-22T16:46:47.166Z,10.97
2022-10-22T16:49:14.596Z,4.73
2022-10-22T16:51:43.469Z,5.87
2022-10-22T16:54:12.831Z,3.20
2022-10-22T16:56:40.710Z,5.97
2022-10-22T16:59:08.241Z,3.40
2022-10-22T17:01:40.382Z,4.20
2022-10-22T17:04:08.275Z,6.83
2022-10-22T17:06:35.786Z,4.53
2022-10-22T17:09:05.386Z,3.60
2022-10-22T17:11:36.270Z,3.33
2022-10-22T17:14:05.783Z,5.43
2022-10-22T17:16:33.206Z,4.03
2022-10-22T17:19:03.406Z,5.73
2022-10-22T17:21:30.833Z,7.27
2022-10-22T17:23:59.111Z,2.50
2022-10-22T17:26:27.988Z,5.67
2022-10-22T17:28:55.878Z,3.50
2022-10-22T17:31:25.270Z,4.40
2022-10-22T17:33:54.621Z,7.63
2022-10-22T17:36:23.653Z,3.93
2022-10-22T17:38:53.126Z,4.10
2022-10-22T17:41:23.204Z,3.83
2022-10-22T17:43:52.103Z,3.23
2022-10-22T17:46:21.696Z,2.10
2022-10-22T17:48:52.746Z,5.73
2022-10-22T17:51:21.202Z,3.97
2022-10-22T17:53:50.075Z,3.63
2022-10-22T17:56:21.647Z,2.37
2022-10-22T17:58:49.787Z,5.53
2022-10-22T18:01:22.010Z,4.73
2022-10-22T18:03:49.945Z,8.30
2022-10-22T18:06:17.510Z,3.97
2022-10-22T18:08:45.231Z,1.87
2022-10-22T18:11:15.494Z,2.90
2022-10-22T18:13:43.254Z,4.43
2022-10-22T18:16:11.460Z,3.17
2022-10-22T18:18:40.218Z,4.30
2022-10-22T18:21:07.696Z,1.30
2022-10-22T18:23:35.082Z,2.77
2022-10-22T18:26:05.541Z,3.63
2022-10-22T18:28:33.360Z,4.10
2022-10-22T18:31:00.859Z,3.50
2022-10-22T18:33:28.275Z,1.90
2022-10-22T18:35:57.025Z,3.60
2022-10-22T18:38:24.532Z,2.83
2022-10-22T18:40:51.947Z,3.77
2022-10-22T18:43:19.526Z,2.60
2022-10-22T18:45:48.792Z,4.50
2022-10-22T18:48:18.211Z,1.60
2022-10-22T18:50:46.871Z,2.97
2022-10-22T18:53:17.173Z,3.80
2022-10-22T18:55:45.282Z,4.67
2022-10-22T18:58:12.683Z,4.83
2022-10-22T19:00:40.134Z,2.33
2022-10-22T19:03:07.583Z,4.90
2022-10-22T19:05:35.045Z,2.73
2022-10-22T19:08:02.495Z,3.70
2022-10-22T19:10:31.249Z,2.57
2022-10-22T19:12:58.667Z,3.93
2022-10-22T19:15:26.152Z,5.10
2022-10-22T19:17:53.662Z,3.67
2022-10-22T19:20:21.253Z,4.03
2022-10-22T19:22:50.521Z,2.67
2022-10-22T19:25:18.038Z,5.60
2022-10-22T19:27:48.112Z,2.30
2022-10-22T19:30:15.954Z,6.23
2022-10-22T19:32:43.605Z,6.57
2022-10-22T19:35:11.170Z,5.97
2022-10-22T19:37:38.646Z,7.57
2022-10-22T19:40:08.034Z,4.07
2022-10-22T19:42:36.743Z,4.70
2022-10-22T19:45:07.247Z,3.17
2022-10-22T19:47:34.688Z,3.00
2022-10-22T19:50:02.083Z,1.97
2022-10-22T19:52:29.496Z,2.67
2022-10-22T19:54:56.894Z,3.50
2022-10-22T19:57:24.324Z,4.50
2022-10-22T19:59:51.784Z,2.53
2022-10-22T20:02:20.741Z,4.00
2022-10-22T20:04:49.896Z,2.77
2022-10-22T20:07:17.786Z,3.37
2022-10-22T20:09:45.232Z,3.10
2022-10-22T20:12:12.670Z,2.40
2022-10-22T20:14:40.885Z,3.80
2022-10-22T20:17:08.291Z,3.67
2022-10-22T20:19:37.026Z,6.30
2022-10-22T20:22:04.475Z,5.40
2022-10-22T20:24:31.923Z,3.50
2022-10-22T20:26:59.347Z,2.20
2022-10-22T20:29:26.755Z,2.83
2022-10-22T20:31:54.141Z,1.80
2022-10-22T20:34:21.689Z,1.90
2022-10-22T20:36:50.431Z,4.10
2022-10-22T20:39:18.742Z,3.80
2022-10-22T20:41:46.204Z,2.00
2022-10-22T20:44:16.465Z,3.20
2022-10-22T20:46:44.713Z,3.30
2022-10-22T20:49:14.413Z,2.83
2022-10-22T20:51:42.043Z,3.23
2022-10-22T20:54:11.242Z,3.33
2022-10-22T20:56:40.927Z,1.53
2022-10-22T20:59:10.675Z,3.30
2022-10-22T21:01:40.671Z,2.07
2022-10-22T21:04:08.896Z,3.20
2022-10-22T21:06:38.087Z,2.33
2022-10-22T21:09:07.019Z,2.73
2022-10-22T21:11:36.670Z,2.63
2022-10-22T21:14:05.082Z,2.87
2022-10-22T21:16:32.858Z,4.03
2022-10-22T21:19:00.680Z,4.43
2022-10-22T21:21:28.221Z,3.00
2022-10-22T21:23:55.649Z,3.13
2022-10-22T21:26:23.239Z,3.33
2022-10-22T21:28:52.010Z,4.57
2022-10-22T21:31:21.562Z,3.77
2022-10-22T21:33:50.074Z,4.53
2022-10-22T21:36:22.382Z,5.10
2022-10-22T21:38:51.467Z,3.87
2022-10-22T21:41:20.821Z,4.37
2022-10-22T21:43:48.421Z,4.77
2022-10-22T21:46:19.393Z,3.03
2022-10-22T21:48:48.146Z,3.67
2022-10-22T21:51:17.634Z,9.57
2022-10-22T21:53:45.436Z,3.20
2022-10-22T21:56:15.243Z,3.47
2022-10-22T21:58:42.699Z,4.50
2022-10-22T22:01:10.586Z,4.20
2022-10-22T22:03:39.375Z,5.27
2022-10-22T22:06:07.616Z,3.80
2022-10-22T22:08:35.242Z,4.20
2022-10-22T22:11:03.182Z,4.97
2022-10-22T22:13:30.761Z,4.80
2022-10-22T22:16:01.386Z,5.50
2022-10-22T22:18:29.581Z,3.60
2022-10-22T22:20:58.690Z,2.80
2022-10-22T22:23:26.314Z,2.10
2022-10-22T22:25:53.747Z,3.20
2022-10-22T22:28:21.190Z,3.80
2022-10-22T22:30:49.130Z,7.17
2022-10-22T22:33:16.563Z,2.77
2022-10-22T22:35:43.984Z,3.93
2022-10-22T22:38:12.923Z,4.27
2022-10-22T22:40:41.028Z,2.60
2022-10-22T22:43:08.943Z,5.60
2022-10-22T22:45:36.474Z,2.57
2022-10-22T22:48:04.120Z,2.90
2022-10-22T22:50:31.782Z,4.50
2022-10-22T22:52:59.255Z,3.43
2022-10-22T22:55:28.068Z,3.57
2022-10-22T22:57:55.554Z,3.10
2022-10-22T23:00:23.266Z,4.50
2022-10-22T23:02:55.259Z,1.70
2022-10-22T23:05:22.682Z,3.13
2022-10-22T23:07:50.118Z,2.90
2022-10-22T23:10:17.586Z,2.83
2022-10-22T23:12:46.479Z,3.47
2022-10-22T23:15:13.917Z,3.60
2022-10-22T23:17:41.343Z,4.77
2022-10-22T23:20:09.858Z,2.30
2022-10-22T23:22:37.290Z,3.27
2022-10-22T23:25:05.333Z,3.10
2022-10-22T23:27:32.726Z,2.37
2022-10-22T23:30:01.524Z,1.50
2022-10-22T23:32:29.040Z,2.83
2022-10-22T23:34:57.573Z,2.63
2022-10-22T23:37:24.961Z,3.17
2022-10-22T23:39:52.415Z,4.20
2022-10-22T23:42:19.811Z,4.57
2022-10-22T23:44:47.244Z,2.23
2022-10-22T23:47:15.997Z,1.83
2022-10-22T23:49:43.554Z,2.83
2022-10-22T23:52:10.974Z,3.10
2022-10-22T23:54:38.418Z,1.77
2022-10-22T23:57:05.835Z,4.23
2022-10-22T23:59:33.262Z,3.03
